createdAt,value
2022-07-27T00:04:21.913Z,40.10
2022-07-27T00:10:37.161Z,39.80
2022-07-27T00:16:51.269Z,39.30
2022-07-27T00:23:05.641Z,38.70
2022-07-27T00:29:19.773Z,38.20
2022-07-27T00:35:33.725Z,38.00
2022-07-27T00:41:49.672Z,37.80
2022-07-27T00:48:02.196Z,37.60
2022-07-27T00:54:16.253Z,37.30
2022-07-27T01:00:29.937Z,37.10
2022-07-27T01:06:44.380Z,36.90
2022-07-27T01:12:58.934Z,37.10
2022-07-27T01:19:12.788Z,36.40
2022-07-27T01:25:26.168Z,36.20
2022-07-27T01:31:38.448Z,36.20
2022-07-27T01:37:52.404Z,36.10
2022-07-27T01:44:03.707Z,36.00
2022-07-27T01:50:18.324Z,35.90
2022-07-27T01:56:32.292Z,35.60
2022-07-27T02:02:46.208Z,35.60
2022-07-27T02:09:00.468Z,35.50
2022-07-27T02:15:17.692Z,35.40
2022-07-27T02:21:31.582Z,35.40
2022-07-27T02:27:44.095Z,35.30
2022-07-27T02:33:58.118Z,35.30
2022-07-27T02:40:14.372Z,35.20
2022-07-27T02:46:28.377Z,35.10
2022-07-27T02:52:42.513Z,35.00
2022-07-27T02:58:55.681Z,35.00
2022-07-27T03:05:07.931Z,35.00
2022-07-27T03:11:23.165Z,35.00
2022-07-27T03:17:38.114Z,35.60
2022-07-27T03:23:50.372Z,35.00
2022-07-27T03:30:04.533Z,35.80
2022-07-27T03:36:20.407Z,36.00
2022-07-27T03:42:32.931Z,35.80
2022-07-27T03:48:46.908Z,35.90
2022-07-27T03:55:00.782Z,36.10
2022-07-27T04:01:15.017Z,36.30
2022-07-27T04:07:30.725Z,36.50
2022-07-27T04:13:45.684Z,36.60
2022-07-27T04:20:01.800Z,36.30
2022-07-27T04:26:12.454Z,36.30
2022-07-27T04:32:25.262Z,36.10
2022-07-27T04:38:38.432Z,35.80
2022-07-27T04:44:52.344Z,36.10
2022-07-27T04:51:05.075Z,36.90
2022-07-27T04:57:18.969Z,36.50
2022-07-27T05:03:31.353Z,36.80
2022-07-27T05:09:45.926Z,37.10
2022-07-27T05:15:57.035Z,37.30
2022-07-27T05:22:09.688Z,37.30
2022-07-27T05:28:23.829Z,37.20
2022-07-27T05:34:37.850Z,37.40
2022-07-27T05:40:52.537Z,38.00
2022-07-27T05:47:06.709Z,38.00
2022-07-27T05:53:21.187Z,38.10
2022-07-27T05:59:35.123Z,38.40
2022-07-27T06:05:49.632Z,38.50
2022-07-27T06:12:02.238Z,39.20
2022-07-27T06:18:18.019Z,38.80
2022-07-27T06:24:32.479Z,39.10
2022-07-27T06:30:47.645Z,39.20
2022-07-27T06:37:02.463Z,39.40
2022-07-27T06:43:14.886Z,39.40
2022-07-27T06:49:29.006Z,39.90
2022-07-27T06:55:41.629Z,39.30
2022-07-27T07:01:53.920Z,39.40
2022-07-27T07:08:07.898Z,39.50
2022-07-27T07:14:21.931Z,39.70
2022-07-27T07:20:34.470Z,39.50
2022-07-27T07:26:49.148Z,39.60
2022-07-27T07:33:03.115Z,39.60
2022-07-27T07:39:16.581Z,39.80
2022-07-27T07:45:28.554Z,39.90
2022-07-27T07:51:43.100Z,40.40
2022-07-27T07:57:55.420Z,39.70
2022-07-27T08:04:07.751Z,39.90
2022-07-27T08:10:21.733Z,40.00
2022-07-27T08:16:35.862Z,40.30
2022-07-27T08:22:50.830Z,40.10
2022-07-27T08:29:13.147Z,40.10
2022-07-27T08:35:17.834Z,39.90
2022-07-27T08:41:31.289Z,40.10
2022-07-27T08:47:44.342Z,40.30
2022-07-27T08:53:56.811Z,40.20
2022-07-27T09:00:12.509Z,40.10
2022-07-27T09:06:37.467Z,40.10
2022-07-27T09:12:51.519Z,40.40
2022-07-27T09:19:09.016Z,40.60
2022-07-27T09:25:38.726Z,40.30
2022-07-27T09:31:39.640Z,40.80
2022-07-27T09:37:53.845Z,40.30
2022-07-27T09:50:32.365Z,40.60
2022-07-27T09:56:43.605Z,40.40
2022-07-27T10:02:56.783Z,40.40
2022-07-27T10:09:09.286Z,40.60
2022-07-27T10:15:23.271Z,40.70
2022-07-27T10:21:37.548Z,40.60
2022-07-27T10:27:51.772Z,40.70
2022-07-27T10:34:06.109Z,40.60
2022-07-27T10:40:41.233Z,41.30
2022-07-27T10:46:56.838Z,40.90
2022-07-27T10:53:28.605Z,40.80
2022-07-27T11:00:12.464Z,40.60
2022-07-27T11:06:32.445Z,40.70
2022-07-27T11:12:31.283Z,40.90
2022-07-27T11:18:44.973Z,40.90
2022-07-27T11:25:01.863Z,40.70
2022-07-27T11:31:13.101Z,40.80
2022-07-27T11:37:26.583Z,40.60
2022-07-27T11:43:45.874Z,41.10
2022-07-27T11:49:59.388Z,40.90
2022-07-27T11:56:14.163Z,40.70
2022-07-27T12:02:28.012Z,40.60
2022-07-27T12:08:42.691Z,41.00
2022-07-27T12:14:59.032Z,40.40
2022-07-27T12:21:14.328Z,40.40
2022-07-27T12:27:28.541Z,40.30
2022-07-27T12:33:43.509Z,40.30
2022-07-27T12:39:56.906Z,40.40
2022-07-27T12:46:19.495Z,40.40
2022-07-27T12:52:32.060Z,40.40
2022-07-27T12:58:46.934Z,40.40
2022-07-27T13:04:59.753Z,40.40
2022-07-27T13:11:13.813Z,40.40
2022-07-27T13:17:27.093Z,40.30
2022-07-27T13:23:41.217Z,40.40
2022-07-27T13:29:54.268Z,40.30
2022-07-27T13:36:09.721Z,40.20
2022-07-27T13:42:22.764Z,40.00
2022-07-27T13:48:35.651Z,39.90
2022-07-27T13:54:48.070Z,40.00
2022-07-27T14:01:07.152Z,40.00
2022-07-27T14:07:18.419Z,40.00
2022-07-27T14:13:31.838Z,39.90
2022-07-27T14:19:46.258Z,39.90
2022-07-27T14:26:00.694Z,40.10
2022-07-27T14:32:17.558Z,40.10
2022-07-27T14:38:31.366Z,40.10
2022-07-27T14:44:45.850Z,40.10
2022-07-27T14:51:00.046Z,40.00
2022-07-27T14:57:12.738Z,40.10
2022-07-27T15:03:27.263Z,40.10
2022-07-27T15:09:39.582Z,40.10
2022-07-27T15:15:54.967Z,40.10
2022-07-27T15:22:09.081Z,40.20
2022-07-27T15:28:23.207Z,40.10
2022-07-27T15:34:35.843Z,40.10
2022-07-27T15:40:49.945Z,40.20
2022-07-27T15:47:01.732Z,40.10
2022-07-27T15:53:11.023Z,40.00
2022-07-27T15:59:25.858Z,39.90
2022-07-27T16:05:41.375Z,40.20
2022-07-27T16:11:55.513Z,40.40
2022-07-27T16:18:08.364Z,40.30
2022-07-27T16:24:23.494Z,40.80
2022-07-27T16:30:38.456Z,41.00
2022-07-27T16:36:51.425Z,41.00
2022-07-27T16:43:06.357Z,41.30
2022-07-27T16:49:20.487Z,42.30
2022-07-27T16:55:33.697Z,42.90
2022-07-27T17:01:45.891Z,43.40
2022-07-27T17:08:00.186Z,43.10
2022-07-27T17:14:14.156Z,43.40
2022-07-27T17:20:35.397Z,42.80
2022-07-27T17:26:45.434Z,42.70
2022-07-27T17:32:58.352Z,43.00
2022-07-27T17:39:13.710Z,42.60
2022-07-27T17:45:28.707Z,42.30
2022-07-27T17:51:41.538Z,42.40
2022-07-27T17:57:54.018Z,42.40
2022-07-27T18:04:08.291Z,42.30
2022-07-27T18:10:20.881Z,42.00
2022-07-27T18:16:40.148Z,42.00
2022-07-27T18:22:50.970Z,41.90
2022-07-27T18:29:05.203Z,42.00
2022-07-27T18:35:20.838Z,41.90
2022-07-27T18:41:35.081Z,41.90
2022-07-27T18:47:49.325Z,41.80
2022-07-27T18:54:03.584Z,41.70
2022-07-27T19:00:21.037Z,41.70
2022-07-27T19:06:33.534Z,41.70
2022-07-27T19:12:47.255Z,41.60
2022-07-27T19:19:00.256Z,41.50
2022-07-27T19:25:16.557Z,41.80
2022-07-27T19:31:30.594Z,41.70
2022-07-27T19:37:43.502Z,41.70
2022-07-27T19:43:58.330Z,41.60
2022-07-27T19:50:08.876Z,41.50
2022-07-27T19:56:23.451Z,41.50
2022-07-27T20:02:38.070Z,41.50
2022-07-27T20:08:52.669Z,41.50
2022-07-27T20:15:05.768Z,41.40
2022-07-27T20:21:23.343Z,41.40
2022-07-27T20:27:34.707Z,41.40
2022-07-27T20:33:49.489Z,42.00
2022-07-27T20:40:02.673Z,41.50
2022-07-27T20:46:15.792Z,41.60
2022-07-27T20:52:31.276Z,41.60
2022-07-27T20:58:43.969Z,41.70
2022-07-27T21:04:57.271Z,41.70
2022-07-27T21:11:13.112Z,41.80
2022-07-27T21:17:27.289Z,41.60
2022-07-27T21:23:57.018Z,41.50
2022-07-27T21:30:11.401Z,41.60
2022-07-27T21:36:25.430Z,41.80
2022-07-27T21:42:39.615Z,42.20
2022-07-27T21:48:52.597Z,42.20
2022-07-27T21:55:03.738Z,41.90
2022-07-27T22:01:14.819Z,41.90
2022-07-27T22:07:28.848Z,42.50
2022-07-27T22:13:41.317Z,42.40
2022-07-27T22:19:55.405Z,42.30
2022-07-27T22:26:09.834Z,42.60
2022-07-27T22:32:23.762Z,42.60
2022-07-27T22:38:36.278Z,42.40
2022-07-27T22:44:49.593Z,42.90
2022-07-27T22:51:00.961Z,42.60
2022-07-27T22:57:13.813Z,42.60
2022-07-27T23:03:27.276Z,41.50
2022-07-27T23:09:41.653Z,40.70
2022-07-27T23:15:56.168Z,41.10
2022-07-27T23:22:10.965Z,41.00
2022-07-27T23:28:25.756Z,40.80
2022-07-27T23:34:39.792Z,40.80
2022-07-27T23:40:52.673Z,41.90
2022-07-27T23:47:04.426Z,41.90
2022-07-27T23:53:19.839Z,42.10
2022-07-27T23:59:33.908Z,41.40
